sensor_id;sensor_type;location;lat;lon;timestamp;P1;durP1;ratioP1;P2;durP2;ratioP2
18651;SDS011;9455;54.302;10.124;2022-09-02T00:00:00;0.80;;;0.60;;
18651;SDS011;9455;54.302;10.124;2022-09-02T00:02:30;4.80;;;0.70;;
18651;SDS011;9455;54.302;10.124;2022-09-02T00:04:57;0.70;;;0.70;;
18651;SDS011;9455;54.302;10.124;2022-09-02T00:07:24;1.87;;;1.00;;
18651;SDS011;9455;54.302;10.124;2022-09-02T00:09:51;0.70;;;0.70;;
18651;SDS011;9455;54.302;10.124;2022-09-02T00:12:18;0.70;;;0.70;;
18651;SDS011;9455;54.302;10.124;2022-09-02T00:14:45;0.70;;;0.60;;
18651;SDS011;9455;54.302;10.124;2022-09-02T00:17:13;0.60;;;0.60;;
18651;SDS011;9455;54.302;10.124;2022-09-02T00:19:40;0.60;;;0.60;;
18651;SDS011;9455;54.302;10.124;2022-09-02T00:22:06;0.80;;;0.80;;
18651;SDS011;9455;54.302;10.124;2022-09-02T00:24:33;0.93;;;0.70;;
18651;SDS011;9455;54.302;10.124;2022-09-02T00:27:00;2.40;;;0.80;;
18651;SDS011;9455;54.302;10.124;2022-09-02T00:29:27;0.93;;;0.93;;
18651;SDS011;9455;54.302;10.124;2022-09-02T00:31:54;1.00;;;1.00;;
18651;SDS011;9455;54.302;10.124;2022-09-02T00:34:22;1.83;;;1.13;;
18651;SDS011;9455;54.302;10.124;2022-09-02T00:36:48;2.00;;;0.77;;
18651;SDS011;9455;54.302;10.124;2022-09-02T00:39:15;1.13;;;1.10;;
18651;SDS011;9455;54.302;10.124;2022-09-02T00:41:42;3.50;;;1.30;;
18651;SDS011;9455;54.302;10.124;2022-09-02T00:44:10;4.77;;;1.70;;
18651;SDS011;9455;54.302;10.124;2022-09-02T00:46:38;5.67;;;1.63;;
18651;SDS011;9455;54.302;10.124;2022-09-02T00:49:09;4.53;;;1.60;;
18651;SDS011;9455;54.302;10.124;2022-09-02T00:51:41;4.00;;;1.90;;
18651;SDS011;9455;54.302;10.124;2022-09-02T00:54:11;5.10;;;1.73;;
18651;SDS011;9455;54.302;10.124;2022-09-02T00:56:40;5.80;;;1.97;;
18651;SDS011;9455;54.302;10.124;2022-09-02T00:59:09;3.27;;;1.87;;
18651;SDS011;9455;54.302;10.124;2022-09-02T01:01:40;3.70;;;2.27;;
18651;SDS011;9455;54.302;10.124;2022-09-02T01:04:07;5.87;;;2.00;;
18651;SDS011;9455;54.302;10.124;2022-09-02T01:06:33;1.97;;;1.87;;
18651;SDS011;9455;54.302;10.124;2022-09-02T01:09:03;1.70;;;1.60;;
18651;SDS011;9455;54.302;10.124;2022-09-02T01:11:35;7.10;;;2.03;;
18651;SDS011;9455;54.302;10.124;2022-09-02T01:14:04;2.80;;;1.80;;
18651;SDS011;9455;54.302;10.124;2022-09-02T01:16:33;2.80;;;2.53;;
18651;SDS011;9455;54.302;10.124;2022-09-02T01:19:05;8.90;;;2.10;;
18651;SDS011;9455;54.302;10.124;2022-09-02T01:21:37;5.33;;;1.93;;
18651;SDS011;9455;54.302;10.124;2022-09-02T01:24:06;1.87;;;1.77;;
18651;SDS011;9455;54.302;10.124;2022-09-02T01:26:33;2.33;;;2.13;;
18651;SDS011;9455;54.302;10.124;2022-09-02T01:28:59;3.10;;;1.87;;
18651;SDS011;9455;54.302;10.124;2022-09-02T01:31:26;2.33;;;2.13;;
18651;SDS011;9455;54.302;10.124;2022-09-02T01:33:53;7.23;;;2.50;;
18651;SDS011;9455;54.302;10.124;2022-09-02T01:36:19;5.43;;;2.37;;
18651;SDS011;9455;54.302;10.124;2022-09-02T01:38:46;2.10;;;2.00;;
18651;SDS011;9455;54.302;10.124;2022-09-02T01:41:14;2.53;;;2.37;;
18651;SDS011;9455;54.302;10.124;2022-09-02T01:43:41;9.97;;;2.67;;
18651;SDS011;9455;54.302;10.124;2022-09-02T01:46:07;2.57;;;2.10;;
18651;SDS011;9455;54.302;10.124;2022-09-02T01:48:34;2.77;;;2.30;;
18651;SDS011;9455;54.302;10.124;2022-09-02T01:51:01;3.90;;;2.50;;
18651;SDS011;9455;54.302;10.124;2022-09-02T01:53:29;5.03;;;2.50;;
18651;SDS011;9455;54.302;10.124;2022-09-02T01:55:56;2.80;;;2.60;;
18651;SDS011;9455;54.302;10.124;2022-09-02T01:58:24;2.63;;;2.43;;
18651;SDS011;9455;54.302;10.124;2022-09-02T02:00:51;2.27;;;2.03;;
18651;SDS011;9455;54.302;10.124;2022-09-02T02:03:17;3.27;;;2.43;;
18651;SDS011;9455;54.302;10.124;2022-09-02T02:05:44;2.60;;;2.37;;
18651;SDS011;9455;54.302;10.124;2022-09-02T02:08:11;4.50;;;2.40;;
18651;SDS011;9455;54.302;10.124;2022-09-02T02:10:39;3.67;;;2.63;;
18651;SDS011;9455;54.302;10.124;2022-09-02T02:13:06;10.07;;;2.90;;
18651;SDS011;9455;54.302;10.124;2022-09-02T02:15:36;6.10;;;3.60;;
18651;SDS011;9455;54.302;10.124;2022-09-02T02:18:04;5.77;;;3.63;;
18651;SDS011;9455;54.302;10.124;2022-09-02T02:20:31;7.20;;;3.73;;
18651;SDS011;9455;54.302;10.124;2022-09-02T02:22:58;8.53;;;3.77;;
18651;SDS011;9455;54.302;10.124;2022-09-02T02:25:24;10.97;;;3.47;;
18651;SDS011;9455;54.302;10.124;2022-09-02T02:27:51;6.53;;;4.00;;
18651;SDS011;9455;54.302;10.124;2022-09-02T02:30:18;8.50;;;4.40;;
18651;SDS011;9455;54.302;10.124;2022-09-02T02:32:46;7.40;;;4.20;;
18651;SDS011;9455;54.302;10.124;2022-09-02T02:35:13;8.77;;;4.67;;
18651;SDS011;9455;54.302;10.124;2022-09-02T02:37:40;12.27;;;4.73;;
18651;SDS011;9455;54.302;10.124;2022-09-02T02:40:08;17.07;;;6.73;;
18651;SDS011;9455;54.302;10.124;2022-09-02T02:42:36;23.00;;;8.07;;
18651;SDS011;9455;54.302;10.124;2022-09-02T02:45:03;21.57;;;9.07;;
18651;SDS011;9455;54.302;10.124;2022-09-02T02:47:33;19.67;;;8.03;;
18651;SDS011;9455;54.302;10.124;2022-09-02T02:50:00;16.40;;;7.07;;
18651;SDS011;9455;54.302;10.124;2022-09-02T02:52:27;12.80;;;6.47;;
18651;SDS011;9455;54.302;10.124;2022-09-02T02:54:54;18.77;;;7.10;;
18651;SDS011;9455;54.302;10.124;2022-09-02T02:57:20;10.87;;;6.23;;
18651;SDS011;9455;54.302;10.124;2022-09-02T02:59:47;17.47;;;7.77;;
18651;SDS011;9455;54.302;10.124;2022-09-02T03:02:13;17.87;;;7.70;;
18651;SDS011;9455;54.302;10.124;2022-09-02T03:04:40;19.57;;;7.30;;
18651;SDS011;9455;54.302;10.124;2022-09-02T03:07:08;12.03;;;6.13;;
18651;SDS011;9455;54.302;10.124;2022-09-02T03:09:35;18.27;;;6.07;;
18651;SDS011;9455;54.302;10.124;2022-09-02T03:12:02;12.07;;;6.07;;
18651;SDS011;9455;54.302;10.124;2022-09-02T03:14:29;13.67;;;5.87;;
18651;SDS011;9455;54.302;10.124;2022-09-02T03:16:56;17.67;;;6.50;;
18651;SDS011;9455;54.302;10.124;2022-09-02T03:19:22;12.70;;;6.27;;
18651;SDS011;9455;54.302;10.124;2022-09-02T03:21:49;15.03;;;6.43;;
18651;SDS011;9455;54.302;10.124;2022-09-02T03:24:17;16.67;;;6.90;;
18651;SDS011;9455;54.302;10.124;2022-09-02T03:26:44;8.77;;;5.30;;
18651;SDS011;9455;54.302;10.124;2022-09-02T03:29:11;11.00;;;5.33;;
18651;SDS011;9455;54.302;10.124;2022-09-02T03:31:38;11.43;;;5.83;;
18651;SDS011;9455;54.302;10.124;2022-09-02T03:34:05;15.57;;;5.47;;
18651;SDS011;9455;54.302;10.124;2022-09-02T03:36:33;15.97;;;6.37;;
18651;SDS011;9455;54.302;10.124;2022-09-02T03:39:02;9.77;;;4.33;;
18651;SDS011;9455;54.302;10.124;2022-09-02T03:41:31;14.07;;;4.97;;
18651;SDS011;9455;54.302;10.124;2022-09-02T03:43:58;11.10;;;5.13;;
18651;SDS011;9455;54.302;10.124;2022-09-02T03:46:26;9.57;;;4.17;;
18651;SDS011;9455;54.302;10.124;2022-09-02T03:48:53;14.57;;;4.13;;
18651;SDS011;9455;54.302;10.124;2022-09-02T03:51:20;9.43;;;4.00;;
18651;SDS011;9455;54.302;10.124;2022-09-02T03:53:47;7.10;;;4.30;;
18651;SDS011;9455;54.302;10.124;2022-09-02T03:56:14;8.67;;;4.47;;
18651;SDS011;9455;54.302;10.124;2022-09-02T03:58:43;4.83;;;3.07;;
18651;SDS011;9455;54.302;10.124;2022-09-02T04:01:12;4.77;;;2.60;;
18651;SDS011;9455;54.302;10.124;2022-09-02T04:03:39;4.73;;;2.87;;
18651;SDS011;9455;54.302;10.124;2022-09-02T04:06:07;8.13;;;2.63;;
18651;SDS011;9455;54.302;10.124;2022-09-02T04:08:35;5.23;;;2.60;;
18651;SDS011;9455;54.302;10.124;2022-09-02T04:11:03;2.70;;;2.50;;
18651;SDS011;9455;54.302;10.124;2022-09-02T04:13:31;3.00;;;2.07;;
18651;SDS011;9455;54.302;10.124;2022-09-02T04:16:04;6.43;;;2.47;;
18651;SDS011;9455;54.302;10.124;2022-09-02T04:18:31;3.80;;;2.17;;
18651;SDS011;9455;54.302;10.124;2022-09-02T04:20:58;1.80;;;1.47;;
18651;SDS011;9455;54.302;10.124;2022-09-02T04:23:25;4.13;;;1.33;;
18651;SDS011;9455;54.302;10.124;2022-09-02T04:25:52;1.60;;;1.60;;
18651;SDS011;9455;54.302;10.124;2022-09-02T04:28:19;1.97;;;1.40;;
18651;SDS011;9455;54.302;10.124;2022-09-02T04:30:46;1.53;;;1.40;;
18651;SDS011;9455;54.302;10.124;2022-09-02T04:33:14;1.57;;;1.47;;
18651;SDS011;9455;54.302;10.124;2022-09-02T04:35:41;1.57;;;1.47;;
18651;SDS011;9455;54.302;10.124;2022-09-02T04:38:09;2.70;;;1.70;;
18651;SDS011;9455;54.302;10.124;2022-09-02T04:40:38;4.43;;;1.70;;
18651;SDS011;9455;54.302;10.124;2022-09-02T04:43:06;1.07;;;1.07;;
18651;SDS011;9455;54.302;10.124;2022-09-02T04:45:32;1.17;;;1.13;;
18651;SDS011;9455;54.302;10.124;2022-09-02T04:48:00;4.33;;;1.30;;
18651;SDS011;9455;54.302;10.124;2022-09-02T04:50:29;1.73;;;1.50;;
18651;SDS011;9455;54.302;10.124;2022-09-02T04:52:55;2.33;;;1.33;;
18651;SDS011;9455;54.302;10.124;2022-09-02T04:55:22;1.80;;;1.27;;
18651;SDS011;9455;54.302;10.124;2022-09-02T04:57:49;1.80;;;1.00;;
18651;SDS011;9455;54.302;10.124;2022-09-02T05:00:15;3.80;;;1.40;;
18651;SDS011;9455;54.302;10.124;2022-09-02T05:02:43;1.50;;;1.40;;
18651;SDS011;9455;54.302;10.124;2022-09-02T05:05:10;1.60;;;1.33;;
18651;SDS011;9455;54.302;10.124;2022-09-02T05:07:38;2.20;;;1.47;;
18651;SDS011;9455;54.302;10.124;2022-09-02T05:10:05;0.97;;;0.97;;
18651;SDS011;9455;54.302;10.124;2022-09-02T05:12:32;1.70;;;1.60;;
18651;SDS011;9455;54.302;10.124;2022-09-02T05:15:00;5.40;;;1.50;;
18651;SDS011;9455;54.302;10.124;2022-09-02T05:17:27;1.27;;;1.27;;
18651;SDS011;9455;54.302;10.124;2022-09-02T05:19:55;1.67;;;1.57;;
18651;SDS011;9455;54.302;10.124;2022-09-02T05:22:22;5.10;;;1.67;;
18651;SDS011;9455;54.302;10.124;2022-09-02T05:24:51;4.90;;;1.30;;
18651;SDS011;9455;54.302;10.124;2022-09-02T05:27:17;2.80;;;1.83;;
18651;SDS011;9455;54.302;10.124;2022-09-02T05:29:44;8.23;;;1.70;;
18651;SDS011;9455;54.302;10.124;2022-09-02T05:32:11;8.83;;;2.10;;
18651;SDS011;9455;54.302;10.124;2022-09-02T05:34:37;2.57;;;1.40;;
18651;SDS011;9455;54.302;10.124;2022-09-02T05:37:04;2.87;;;1.30;;
18651;SDS011;9455;54.302;10.124;2022-09-02T05:39:30;3.40;;;1.40;;
18651;SDS011;9455;54.302;10.124;2022-09-02T05:41:58;2.67;;;1.37;;
18651;SDS011;9455;54.302;10.124;2022-09-02T05:44:25;2.67;;;1.33;;
18651;SDS011;9455;54.302;10.124;2022-09-02T05:46:53;4.40;;;1.30;;
18651;SDS011;9455;54.302;10.124;2022-09-02T05:49:19;2.63;;;1.37;;
18651;SDS011;9455;54.302;10.124;2022-09-02T05:51:47;1.90;;;1.80;;
18651;SDS011;9455;54.302;10.124;2022-09-02T05:54:17;5.70;;;1.67;;
18651;SDS011;9455;54.302;10.124;2022-09-02T05:56:46;2.40;;;1.43;;
18651;SDS011;9455;54.302;10.124;2022-09-02T05:59:16;2.03;;;1.57;;
18651;SDS011;9455;54.302;10.124;2022-09-02T06:01:43;2.70;;;2.33;;
18651;SDS011;9455;54.302;10.124;2022-09-02T06:04:10;2.77;;;1.90;;
18651;SDS011;9455;54.302;10.124;2022-09-02T06:06:37;7.63;;;1.70;;
18651;SDS011;9455;54.302;10.124;2022-09-02T06:09:04;2.77;;;1.63;;
18651;SDS011;9455;54.302;10.124;2022-09-02T06:11:32;1.90;;;1.40;;
18651;SDS011;9455;54.302;10.124;2022-09-02T06:13:59;6.97;;;1.73;;
18651;SDS011;9455;54.302;10.124;2022-09-02T06:16:31;1.23;;;1.20;;
18651;SDS011;9455;54.302;10.124;2022-09-02T06:18:58;3.77;;;1.50;;
18651;SDS011;9455;54.302;10.124;2022-09-02T06:21:27;4.30;;;1.30;;
18651;SDS011;9455;54.302;10.124;2022-09-02T06:23:54;0.90;;;0.90;;
18651;SDS011;9455;54.302;10.124;2022-09-02T06:26:21;0.80;;;0.80;;
18651;SDS011;9455;54.302;10.124;2022-09-02T06:28:48;3.10;;;1.00;;
18651;SDS011;9455;54.302;10.124;2022-09-02T06:31:15;0.60;;;0.60;;
18651;SDS011;9455;54.302;10.124;2022-09-02T06:33:44;1.73;;;0.90;;
18651;SDS011;9455;54.302;10.124;2022-09-02T06:36:13;7.03;;;1.07;;
18651;SDS011;9455;54.302;10.124;2022-09-02T06:38:42;2.40;;;0.93;;
18651;SDS011;9455;54.302;10.124;2022-09-02T06:41:14;2.30;;;0.80;;
18651;SDS011;9455;54.302;10.124;2022-09-02T06:43:42;0.90;;;0.90;;
18651;SDS011;9455;54.302;10.124;2022-09-02T06:46:13;3.40;;;1.27;;
18651;SDS011;9455;54.302;10.124;2022-09-02T06:48:40;2.80;;;1.20;;
18651;SDS011;9455;54.302;10.124;2022-09-02T06:51:08;2.40;;;1.00;;
18651;SDS011;9455;54.302;10.124;2022-09-02T06:53:41;2.93;;;1.13;;
18651;SDS011;9455;54.302;10.124;2022-09-02T06:56:08;0.60;;;0.50;;
18651;SDS011;9455;54.302;10.124;2022-09-02T06:58:34;1.73;;;0.80;;
18651;SDS011;9455;54.302;10.124;2022-09-02T07:01:02;0.93;;;0.80;;
18651;SDS011;9455;54.302;10.124;2022-09-02T07:03:29;1.90;;;1.03;;
18651;SDS011;9455;54.302;10.124;2022-09-02T07:06:15;0.67;;;0.67;;
18651;SDS011;9455;54.302;10.124;2022-09-02T07:08:42;4.10;;;0.70;;
18651;SDS011;9455;54.302;10.124;2022-09-02T07:11:14;0.90;;;0.90;;
18651;SDS011;9455;54.302;10.124;2022-09-02T07:13:43;0.70;;;0.70;;
18651;SDS011;9455;54.302;10.124;2022-09-02T07:16:09;10.00;;;2.27;;
18651;SDS011;9455;54.302;10.124;2022-09-02T07:18:36;3.33;;;0.70;;
18651;SDS011;9455;54.302;10.124;2022-09-02T07:21:03;0.60;;;0.57;;
18651;SDS011;9455;54.302;10.124;2022-09-02T07:23:31;0.43;;;0.43;;
18651;SDS011;9455;54.302;10.124;2022-09-02T07:25:57;0.50;;;0.50;;
18651;SDS011;9455;54.302;10.124;2022-09-02T07:28:24;8.03;;;1.07;;
18651;SDS011;9455;54.302;10.124;2022-09-02T07:30:51;1.43;;;0.70;;
18651;SDS011;9455;54.302;10.124;2022-09-02T07:33:19;8.23;;;0.70;;
18651;SDS011;9455;54.302;10.124;2022-09-02T07:35:46;0.80;;;0.60;;
18651;SDS011;9455;54.302;10.124;2022-09-02T07:38:13;2.17;;;0.50;;
18651;SDS011;9455;54.302;10.124;2022-09-02T07:40:41;0.57;;;0.57;;
18651;SDS011;9455;54.302;10.124;2022-09-02T07:43:08;0.67;;;0.60;;
18651;SDS011;9455;54.302;10.124;2022-09-02T07:45:36;1.00;;;1.00;;
18651;SDS011;9455;54.302;10.124;2022-09-02T07:48:04;6.23;;;0.50;;
18651;SDS011;9455;54.302;10.124;2022-09-02T07:50:32;1.47;;;0.70;;
18651;SDS011;9455;54.302;10.124;2022-09-02T07:53:00;0.53;;;0.53;;
18651;SDS011;9455;54.302;10.124;2022-09-02T07:55:31;0.50;;;0.50;;
18651;SDS011;9455;54.302;10.124;2022-09-02T07:58:01;0.80;;;0.50;;
18651;SDS011;9455;54.302;10.124;2022-09-02T08:00:28;1.33;;;0.50;;
18651;SDS011;9455;54.302;10.124;2022-09-02T08:02:55;0.77;;;0.50;;
18651;SDS011;9455;54.302;10.124;2022-09-02T08:05:22;0.50;;;0.50;;
18651;SDS011;9455;54.302;10.124;2022-09-02T08:07:49;0.40;;;0.40;;
18651;SDS011;9455;54.302;10.124;2022-09-02T08:10:15;0.30;;;0.30;;
18651;SDS011;9455;54.302;10.124;2022-09-02T08:12:44;0.83;;;0.70;;
18651;SDS011;9455;54.302;10.124;2022-09-02T08:15:12;1.17;;;0.57;;
18651;SDS011;9455;54.302;10.124;2022-09-02T08:17:40;0.60;;;0.60;;
18651;SDS011;9455;54.302;10.124;2022-09-02T08:20:08;1.90;;;0.63;;
18651;SDS011;9455;54.302;10.124;2022-09-02T08:22:37;0.60;;;0.60;;
18651;SDS011;9455;54.302;10.124;2022-09-02T08:25:04;0.77;;;0.57;;
18651;SDS011;9455;54.302;10.124;2022-09-02T08:27:31;0.53;;;0.53;;
18651;SDS011;9455;54.302;10.124;2022-09-02T08:29:59;0.60;;;0.60;;
18651;SDS011;9455;54.302;10.124;2022-09-02T08:32:27;1.00;;;1.00;;
18651;SDS011;9455;54.302;10.124;2022-09-02T08:34:54;0.70;;;0.70;;
18651;SDS011;9455;54.302;10.124;2022-09-02T08:37:21;0.60;;;0.60;;
18651;SDS011;9455;54.302;10.124;2022-09-02T08:39:47;0.60;;;0.60;;
18651;SDS011;9455;54.302;10.124;2022-09-02T08:42:16;0.40;;;0.40;;
18651;SDS011;9455;54.302;10.124;2022-09-02T08:44:48;0.47;;;0.47;;
18651;SDS011;9455;54.302;10.124;2022-09-02T08:47:19;3.03;;;0.60;;
18651;SDS011;9455;54.302;10.124;2022-09-02T08:49:50;1.77;;;0.60;;
18651;SDS011;9455;54.302;10.124;2022-09-02T08:52:21;0.63;;;0.50;;
18651;SDS011;9455;54.302;10.124;2022-09-02T08:54:54;0.50;;;0.50;;
18651;SDS011;9455;54.302;10.124;2022-09-02T08:57:21;0.67;;;0.67;;
18651;SDS011;9455;54.302;10.124;2022-09-02T08:59:51;1.27;;;0.97;;
18651;SDS011;9455;54.302;10.124;2022-09-02T09:02:20;0.60;;;0.60;;
18651;SDS011;9455;54.302;10.124;2022-09-02T09:07:48;1.23;;;0.60;;
18651;SDS011;9455;54.302;10.124;2022-09-02T09:10:26;0.70;;;0.63;;
18651;SDS011;9455;54.302;10.124;2022-09-02T09:13:03;1.07;;;0.60;;
18651;SDS011;9455;54.302;10.124;2022-09-02T09:15:46;3.57;;;0.73;;
18651;SDS011;9455;54.302;10.124;2022-09-02T09:18:23;0.40;;;0.30;;
18651;SDS011;9455;54.302;10.124;2022-09-02T09:21:03;0.80;;;0.80;;
18651;SDS011;9455;54.302;10.124;2022-09-02T09:23:31;0.30;;;0.30;;
18651;SDS011;9455;54.302;10.124;2022-09-02T09:26:03;0.73;;;0.73;;
18651;SDS011;9455;54.302;10.124;2022-09-02T09:28:36;4.27;;;0.70;;
18651;SDS011;9455;54.302;10.124;2022-09-02T09:31:04;0.70;;;0.70;;
18651;SDS011;9455;54.302;10.124;2022-09-02T09:33:34;1.17;;;0.57;;
18651;SDS011;9455;54.302;10.124;2022-09-02T09:36:01;0.53;;;0.53;;
18651;SDS011;9455;54.302;10.124;2022-09-02T09:38:31;0.83;;;0.70;;
18651;SDS011;9455;54.302;10.124;2022-09-02T09:41:15;0.37;;;0.37;;
18651;SDS011;9455;54.302;10.124;2022-09-02T09:43:46;0.77;;;0.57;;
18651;SDS011;9455;54.302;10.124;2022-09-02T09:46:19;0.50;;;0.50;;
18651;SDS011;9455;54.302;10.124;2022-09-02T09:48:50;4.50;;;0.80;;
18651;SDS011;9455;54.302;10.124;2022-09-02T09:51:17;3.47;;;1.33;;
18651;SDS011;9455;54.302;10.124;2022-09-02T09:53:45;5.80;;;2.73;;
18651;SDS011;9455;54.302;10.124;2022-09-02T09:56:22;0.80;;;0.80;;
18651;SDS011;9455;54.302;10.124;2022-09-02T09:58:51;4.80;;;2.00;;
18651;SDS011;9455;54.302;10.124;2022-09-02T10:01:18;4.27;;;2.00;;
18651;SDS011;9455;54.302;10.124;2022-09-02T10:03:47;20.20;;;6.93;;
18651;SDS011;9455;54.302;10.124;2022-09-02T10:06:17;2.00;;;1.20;;
18651;SDS011;9455;54.302;10.124;2022-09-02T10:08:51;0.53;;;0.53;;
18651;SDS011;9455;54.302;10.124;2022-09-02T10:11:21;1.23;;;0.77;;
18651;SDS011;9455;54.302;10.124;2022-09-02T10:13:50;0.53;;;0.53;;
18651;SDS011;9455;54.302;10.124;2022-09-02T10:19:16;0.60;;;0.60;;
18651;SDS011;9455;54.302;10.124;2022-09-02T10:21:58;0.53;;;0.53;;
18651;SDS011;9455;54.302;10.124;2022-09-02T10:24:50;0.33;;;0.33;;
18651;SDS011;9455;54.302;10.124;2022-09-02T10:27:30;0.40;;;0.40;;
18651;SDS011;9455;54.302;10.124;2022-09-02T10:30:03;2.03;;;0.50;;
18651;SDS011;9455;54.302;10.124;2022-09-02T10:32:38;0.83;;;0.83;;
18651;SDS011;9455;54.302;10.124;2022-09-02T10:35:15;3.50;;;0.40;;
18651;SDS011;9455;54.302;10.124;2022-09-02T10:37:51;0.30;;;0.30;;
18651;SDS011;9455;54.302;10.124;2022-09-02T10:40:32;0.23;;;0.23;;
18651;SDS011;9455;54.302;10.124;2022-09-02T10:43:05;1.00;;;0.40;;
18651;SDS011;9455;54.302;10.124;2022-09-02T10:45:35;0.50;;;0.50;;
18651;SDS011;9455;54.302;10.124;2022-09-02T10:48:12;2.73;;;0.53;;
18651;SDS011;9455;54.302;10.124;2022-09-02T10:50:50;2.30;;;0.63;;
18651;SDS011;9455;54.302;10.124;2022-09-02T10:53:32;3.60;;;0.43;;
18651;SDS011;9455;54.302;10.124;2022-09-02T10:56:10;2.00;;;0.50;;
18651;SDS011;9455;54.302;10.124;2022-09-02T10:58:43;3.90;;;0.43;;
18651;SDS011;9455;54.302;10.124;2022-09-02T11:01:13;0.50;;;0.50;;
18651;SDS011;9455;54.302;10.124;2022-09-02T11:03:47;0.50;;;0.40;;
18651;SDS011;9455;54.302;10.124;2022-09-02T11:06:31;0.50;;;0.50;;
18651;SDS011;9455;54.302;10.124;2022-09-02T11:09:02;0.77;;;0.60;;
18651;SDS011;9455;54.302;10.124;2022-09-02T11:11:36;0.67;;;0.67;;
18651;SDS011;9455;54.302;10.124;2022-09-02T11:14:11;0.47;;;0.47;;
18651;SDS011;9455;54.302;10.124;2022-09-02T11:16:45;0.40;;;0.40;;
18651;SDS011;9455;54.302;10.124;2022-09-02T11:19:17;0.50;;;0.50;;
18651;SDS011;9455;54.302;10.124;2022-09-02T11:21:49;0.17;;;0.17;;
18651;SDS011;9455;54.302;10.124;2022-09-02T11:24:21;0.40;;;0.40;;
18651;SDS011;9455;54.302;10.124;2022-09-02T11:26:59;0.37;;;0.37;;
18651;SDS011;9455;54.302;10.124;2022-09-02T11:29:35;1.27;;;0.70;;
18651;SDS011;9455;54.302;10.124;2022-09-02T11:32:12;0.30;;;0.30;;
18651;SDS011;9455;54.302;10.124;2022-09-02T11:34:44;9.33;;;0.90;;
18651;SDS011;9455;54.302;10.124;2022-09-02T11:37:14;0.27;;;0.27;;
18651;SDS011;9455;54.302;10.124;2022-09-02T11:39:54;1.33;;;0.50;;
18651;SDS011;9455;54.302;10.124;2022-09-02T11:42:34;0.20;;;0.20;;
18651;SDS011;9455;54.302;10.124;2022-09-02T11:51:28;2.07;;;0.33;;
18651;SDS011;9455;54.302;10.124;2022-09-02T11:54:06;0.70;;;0.40;;
18651;SDS011;9455;54.302;10.124;2022-09-02T11:56:37;5.73;;;0.70;;
18651;SDS011;9455;54.302;10.124;2022-09-02T11:59:09;0.47;;;0.30;;
18651;SDS011;9455;54.302;10.124;2022-09-02T12:01:46;0.87;;;0.40;;
18651;SDS011;9455;54.302;10.124;2022-09-02T12:04:22;0.30;;;0.30;;
18651;SDS011;9455;54.302;10.124;2022-09-02T12:09:50;0.27;;;0.27;;
18651;SDS011;9455;54.302;10.124;2022-09-02T12:15:25;42.47;;;13.80;;
18651;SDS011;9455;54.302;10.124;2022-09-02T12:29:31;0.40;;;0.40;;
18651;SDS011;9455;54.302;10.124;2022-09-02T12:32:00;0.53;;;0.53;;
18651;SDS011;9455;54.302;10.124;2022-09-02T12:37:50;1.03;;;0.43;;
18651;SDS011;9455;54.302;10.124;2022-09-02T12:40:22;1.03;;;0.50;;
18651;SDS011;9455;54.302;10.124;2022-09-02T12:42:52;0.43;;;0.43;;
18651;SDS011;9455;54.302;10.124;2022-09-02T12:45:25;0.60;;;0.60;;
18651;SDS011;9455;54.302;10.124;2022-09-02T12:47:57;25.50;;;8.63;;
18651;SDS011;9455;54.302;10.124;2022-09-02T12:50:27;9.77;;;3.17;;
18651;SDS011;9455;54.302;10.124;2022-09-02T12:53:10;3.07;;;1.07;;
18651;SDS011;9455;54.302;10.124;2022-09-02T12:55:54;13.20;;;5.57;;
18651;SDS011;9455;54.302;10.124;2022-09-02T12:58:25;0.80;;;0.80;;
18651;SDS011;9455;54.302;10.124;2022-09-02T13:00:59;0.93;;;0.90;;
18651;SDS011;9455;54.302;10.124;2022-09-02T13:03:48;0.90;;;0.40;;
18651;SDS011;9455;54.302;10.124;2022-09-02T13:06:39;1.30;;;0.50;;
18651;SDS011;9455;54.302;10.124;2022-09-02T13:09:21;4.10;;;0.57;;
18651;SDS011;9455;54.302;10.124;2022-09-02T13:12:21;0.50;;;0.50;;
18651;SDS011;9455;54.302;10.124;2022-09-02T13:21:07;0.70;;;0.70;;
18651;SDS011;9455;54.302;10.124;2022-09-02T13:24:04;0.70;;;0.30;;
18651;SDS011;9455;54.302;10.124;2022-09-02T13:26:52;1.50;;;0.47;;
18651;SDS011;9455;54.302;10.124;2022-09-02T13:32:33;2.43;;;0.73;;
18651;SDS011;9455;54.302;10.124;2022-09-02T13:35:02;2.67;;;0.47;;
18651;SDS011;9455;54.302;10.124;2022-09-02T13:37:33;0.30;;;0.30;;
18651;SDS011;9455;54.302;10.124;2022-09-02T13:40:03;0.50;;;0.40;;
18651;SDS011;9455;54.302;10.124;2022-09-02T13:42:32;0.43;;;0.43;;
18651;SDS011;9455;54.302;10.124;2022-09-02T13:45:08;0.30;;;0.30;;
18651;SDS011;9455;54.302;10.124;2022-09-02T13:47:40;1.53;;;0.20;;
18651;SDS011;9455;54.302;10.124;2022-09-02T13:50:08;0.30;;;0.30;;
18651;SDS011;9455;54.302;10.124;2022-09-02T13:52:37;1.33;;;0.60;;
18651;SDS011;9455;54.302;10.124;2022-09-02T13:55:07;4.43;;;0.47;;
18651;SDS011;9455;54.302;10.124;2022-09-02T13:57:37;1.97;;;0.50;;
18651;SDS011;9455;54.302;10.124;2022-09-02T14:00:09;1.00;;;0.47;;
18651;SDS011;9455;54.302;10.124;2022-09-02T14:02:40;0.73;;;0.50;;
18651;SDS011;9455;54.302;10.124;2022-09-02T14:05:09;0.70;;;0.70;;
18651;SDS011;9455;54.302;10.124;2022-09-02T14:07:44;0.70;;;0.70;;
18651;SDS011;9455;54.302;10.124;2022-09-02T14:10:14;0.53;;;0.50;;
18651;SDS011;9455;54.302;10.124;2022-09-02T14:12:42;4.80;;;0.50;;
18651;SDS011;9455;54.302;10.124;2022-09-02T14:15:11;0.50;;;0.43;;
18651;SDS011;9455;54.302;10.124;2022-09-02T14:17:39;52.13;;;16.90;;
18651;SDS011;9455;54.302;10.124;2022-09-02T14:22:55;0.83;;;0.83;;
18651;SDS011;9455;54.302;10.124;2022-09-02T14:25:23;5.13;;;2.90;;
18651;SDS011;9455;54.302;10.124;2022-09-02T14:27:52;6.37;;;0.50;;
18651;SDS011;9455;54.302;10.124;2022-09-02T14:30:27;2.07;;;0.70;;
18651;SDS011;9455;54.302;10.124;2022-09-02T14:33:15;0.90;;;0.60;;
18651;SDS011;9455;54.302;10.124;2022-09-02T14:35:59;1.70;;;0.93;;
18651;SDS011;9455;54.302;10.124;2022-09-02T14:38:29;0.97;;;0.97;;
18651;SDS011;9455;54.302;10.124;2022-09-02T14:41:01;2.33;;;0.80;;
18651;SDS011;9455;54.302;10.124;2022-09-02T14:43:32;0.50;;;0.50;;
18651;SDS011;9455;54.302;10.124;2022-09-02T14:46:06;0.60;;;0.60;;
18651;SDS011;9455;54.302;10.124;2022-09-02T14:48:35;0.40;;;0.37;;
18651;SDS011;9455;54.302;10.124;2022-09-02T14:51:04;2.03;;;0.57;;
18651;SDS011;9455;54.302;10.124;2022-09-02T14:53:34;1.60;;;0.30;;
18651;SDS011;9455;54.302;10.124;2022-09-02T14:56:02;2.30;;;0.53;;
18651;SDS011;9455;54.302;10.124;2022-09-02T14:58:30;0.70;;;0.70;;
18651;SDS011;9455;54.302;10.124;2022-09-02T15:00:56;0.50;;;0.50;;
18651;SDS011;9455;54.302;10.124;2022-09-02T15:03:24;1.27;;;0.70;;
18651;SDS011;9455;54.302;10.124;2022-09-02T15:05:52;0.40;;;0.40;;
18651;SDS011;9455;54.302;10.124;2022-09-02T15:08:18;0.50;;;0.50;;
18651;SDS011;9455;54.302;10.124;2022-09-02T15:10:46;0.60;;;0.60;;
18651;SDS011;9455;54.302;10.124;2022-09-02T15:13:14;3.80;;;0.40;;
18651;SDS011;9455;54.302;10.124;2022-09-02T15:15:50;0.50;;;0.40;;
18651;SDS011;9455;54.302;10.124;2022-09-02T15:18:16;0.40;;;0.40;;
18651;SDS011;9455;54.302;10.124;2022-09-02T15:20:44;0.30;;;0.30;;
18651;SDS011;9455;54.302;10.124;2022-09-02T15:23:10;2.70;;;0.60;;
18651;SDS011;9455;54.302;10.124;2022-09-02T15:25:37;1.60;;;0.37;;
18651;SDS011;9455;54.302;10.124;2022-09-02T15:28:05;0.33;;;0.33;;
18651;SDS011;9455;54.302;10.124;2022-09-02T15:30:32;5.73;;;0.50;;
18651;SDS011;9455;54.302;10.124;2022-09-02T15:33:01;0.60;;;0.60;;
18651;SDS011;9455;54.302;10.124;2022-09-02T15:35:30;0.20;;;0.20;;
18651;SDS011;9455;54.302;10.124;2022-09-02T15:37:57;3.57;;;0.57;;
18651;SDS011;9455;54.302;10.124;2022-09-02T15:40:26;0.43;;;0.43;;
18651;SDS011;9455;54.302;10.124;2022-09-02T15:42:52;1.97;;;0.40;;
18651;SDS011;9455;54.302;10.124;2022-09-02T15:45:21;0.50;;;0.50;;